sensor_id;sensor_type;location;lat;lon;timestamp;P1;durP1;ratioP1;P2;durP2;ratioP2
76548;SDS011;65391;52.068;4.542;2022-12-08T00:00:38;1.7;;;0.2;;
76548;SDS011;65391;52.068;4.542;2022-12-08T00:03:03;1.7;;;0.2;;
76548;SDS011;65391;52.068;4.542;2022-12-08T00:05:28;1.7;;;0.2;;
76548;SDS011;65391;52.068;4.542;2022-12-08T00:07:53;2.3;;;0.4;;
76548;SDS011;65391;52.068;4.542;2022-12-08T00:10:18;2.3;;;0.4;;
76548;SDS011;65391;52.068;4.542;2022-12-08T00:12:43;2.3;;;0.4;;
76548;SDS011;65391;52.068;4.542;2022-12-08T00:15:09;2.3;;;0.4;;
76548;SDS011;65391;52.068;4.542;2022-12-08T00:17:33;3.2;;;0.5;;
76548;SDS011;65391;52.068;4.542;2022-12-08T00:19:58;3.2;;;0.5;;
76548;SDS011;65391;52.068;4.542;2022-12-08T00:22:23;3.2;;;0.5;;
76548;SDS011;65391;52.068;4.542;2022-12-08T00:24:48;3.2;;;0.5;;
76548;SDS011;65391;52.068;4.542;2022-12-08T00:27:14;1.3;;;0.5;;
76548;SDS011;65391;52.068;4.542;2022-12-08T00:29:38;1.3;;;0.5;;
76548;SDS011;65391;52.068;4.542;2022-12-08T00:32:04;1.3;;;0.5;;
76548;SDS011;65391;52.068;4.542;2022-12-08T00:34:29;1.3;;;0.5;;
76548;SDS011;65391;52.068;4.542;2022-12-08T00:36:53;2.4;;;0.7;;
76548;SDS011;65391;52.068;4.542;2022-12-08T00:39:18;2.4;;;0.7;;
76548;SDS011;65391;52.068;4.542;2022-12-08T00:41:43;2.4;;;0.7;;
76548;SDS011;65391;52.068;4.542;2022-12-08T00:44:09;2.4;;;0.7;;
76548;SDS011;65391;52.068;4.542;2022-12-08T00:46:34;2.8;;;1.3;;
76548;SDS011;65391;52.068;4.542;2022-12-08T00:48:58;2.8;;;1.3;;
76548;SDS011;65391;52.068;4.542;2022-12-08T00:51:23;2.8;;;1.3;;
76548;SDS011;65391;52.068;4.542;2022-12-08T00:53:48;2.8;;;1.3;;
76548;SDS011;65391;52.068;4.542;2022-12-08T00:56:13;4.6;;;2.6;;
76548;SDS011;65391;52.068;4.542;2022-12-08T00:58:38;4.6;;;2.6;;
76548;SDS011;65391;52.068;4.542;2022-12-08T01:01:08;4.6;;;2.6;;
76548;SDS011;65391;52.068;4.542;2022-12-08T01:03:28;4.6;;;2.6;;
76548;SDS011;65391;52.068;4.542;2022-12-08T01:05:53;4.6;;;2.6;;
76548;SDS011;65391;52.068;4.542;2022-12-08T01:08:18;9.7;;;2.7;;
76548;SDS011;65391;52.068;4.542;2022-12-08T01:10:43;9.7;;;2.7;;
76548;SDS011;65391;52.068;4.542;2022-12-08T01:13:08;9.7;;;2.7;;
76548;SDS011;65391;52.068;4.542;2022-12-08T01:15:33;9.7;;;2.7;;
76548;SDS011;65391;52.068;4.542;2022-12-08T01:18:00;6.7;;;1.4;;
76548;SDS011;65391;52.068;4.542;2022-12-08T01:20:24;6.7;;;1.4;;
76548;SDS011;65391;52.068;4.542;2022-12-08T01:22:49;6.7;;;1.4;;
76548;SDS011;65391;52.068;4.542;2022-12-08T01:25:14;6.7;;;1.4;;
76548;SDS011;65391;52.068;4.542;2022-12-08T01:27:39;6.4;;;1;;
76548;SDS011;65391;52.068;4.542;2022-12-08T01:30:05;6.4;;;1;;
76548;SDS011;65391;52.068;4.542;2022-12-08T01:32:29;6.4;;;1;;
76548;SDS011;65391;52.068;4.542;2022-12-08T01:34:54;6.4;;;1;;
76548;SDS011;65391;52.068;4.542;2022-12-08T01:37:19;2.8;;;0.7;;
76548;SDS011;65391;52.068;4.542;2022-12-08T01:39:44;2.8;;;0.7;;
76548;SDS011;65391;52.068;4.542;2022-12-08T01:42:17;2.8;;;0.7;;
76548;SDS011;65391;52.068;4.542;2022-12-08T01:45:06;2.8;;;0.7;;
76548;SDS011;65391;52.068;4.542;2022-12-08T01:46:59;3.5;;;0.3;;
76548;SDS011;65391;52.068;4.542;2022-12-08T01:49:24;3.5;;;0.3;;
76548;SDS011;65391;52.068;4.542;2022-12-08T01:51:51;3.5;;;0.3;;
76548;SDS011;65391;52.068;4.542;2022-12-08T01:54:14;3.5;;;0.3;;
76548;SDS011;65391;52.068;4.542;2022-12-08T01:56:40;1.4;;;0.4;;
76548;SDS011;65391;52.068;4.542;2022-12-08T01:59:04;1.4;;;0.4;;
76548;SDS011;65391;52.068;4.542;2022-12-08T02:01:29;1.4;;;0.4;;
76548;SDS011;65391;52.068;4.542;2022-12-08T02:03:55;1.4;;;0.4;;
76548;SDS011;65391;52.068;4.542;2022-12-08T02:06:19;3;;;0.4;;
76548;SDS011;65391;52.068;4.542;2022-12-08T02:08:44;3;;;0.4;;
76548;SDS011;65391;52.068;4.542;2022-12-08T02:11:09;3;;;0.4;;
76548;SDS011;65391;52.068;4.542;2022-12-08T02:13:34;3;;;0.4;;
76548;SDS011;65391;52.068;4.542;2022-12-08T02:16:00;3;;;0.4;;
76548;SDS011;65391;52.068;4.542;2022-12-08T02:18:33;6.5;;;0.3;;
76548;SDS011;65391;52.068;4.542;2022-12-08T02:20:53;6.5;;;0.3;;
76548;SDS011;65391;52.068;4.542;2022-12-08T02:23:20;6.5;;;0.3;;
76548;SDS011;65391;52.068;4.542;2022-12-08T02:25:45;6.5;;;0.3;;
76548;SDS011;65391;52.068;4.542;2022-12-08T02:28:13;2.5;;;0.4;;
76548;SDS011;65391;52.068;4.542;2022-12-08T02:30:32;2.5;;;0.4;;
76548;SDS011;65391;52.068;4.542;2022-12-08T02:33:42;2.5;;;0.4;;
76548;SDS011;65391;52.068;4.542;2022-12-08T02:35:20;2.5;;;0.4;;
76548;SDS011;65391;52.068;4.542;2022-12-08T02:37:46;4;;;0.2;;
76548;SDS011;65391;52.068;4.542;2022-12-08T02:40:12;4;;;0.2;;
76548;SDS011;65391;52.068;4.542;2022-12-08T02:42:36;4;;;0.2;;
76548;SDS011;65391;52.068;4.542;2022-12-08T02:45:00;4;;;0.2;;
76548;SDS011;65391;52.068;4.542;2022-12-08T02:47:24;3.4;;;0.4;;
76548;SDS011;65391;52.068;4.542;2022-12-08T02:49:49;3.4;;;0.4;;
76548;SDS011;65391;52.068;4.542;2022-12-08T02:52:45;3.4;;;0.4;;
76548;SDS011;65391;52.068;4.542;2022-12-08T02:54:39;3.4;;;0.4;;
76548;SDS011;65391;52.068;4.542;2022-12-08T02:57:12;6;;;1.3;;
76548;SDS011;65391;52.068;4.542;2022-12-08T02:59:35;6;;;1.3;;
76548;SDS011;65391;52.068;4.542;2022-12-08T03:02:01;6;;;1.3;;
76548;SDS011;65391;52.068;4.542;2022-12-08T03:04:21;6;;;1.3;;
76548;SDS011;65391;52.068;4.542;2022-12-08T03:06:47;2.2;;;0.3;;
76548;SDS011;65391;52.068;4.542;2022-12-08T03:09:10;2.2;;;0.3;;
76548;SDS011;65391;52.068;4.542;2022-12-08T03:11:37;2.2;;;0.3;;
76548;SDS011;65391;52.068;4.542;2022-12-08T03:13:59;2.2;;;0.3;;
76548;SDS011;65391;52.068;4.542;2022-12-08T03:16:26;5.4;;;0.3;;
76548;SDS011;65391;52.068;4.542;2022-12-08T03:18:52;5.4;;;0.3;;
76548;SDS011;65391;52.068;4.542;2022-12-08T03:21:14;5.4;;;0.3;;
76548;SDS011;65391;52.068;4.542;2022-12-08T03:23:39;5.4;;;0.3;;
76548;SDS011;65391;52.068;4.542;2022-12-08T03:26:07;5.4;;;0.3;;
76548;SDS011;65391;52.068;4.542;2022-12-08T03:28:29;5.9;;;0.7;;
76548;SDS011;65391;52.068;4.542;2022-12-08T03:30:55;5.9;;;0.7;;
76548;SDS011;65391;52.068;4.542;2022-12-08T03:33:22;5.9;;;0.7;;
76548;SDS011;65391;52.068;4.542;2022-12-08T03:35:44;5.9;;;0.7;;
76548;SDS011;65391;52.068;4.542;2022-12-08T03:38:10;5.2;;;0.6;;
76548;SDS011;65391;52.068;4.542;2022-12-08T03:40:34;5.2;;;0.6;;
76548;SDS011;65391;52.068;4.542;2022-12-08T03:42:59;5.2;;;0.6;;
76548;SDS011;65391;52.068;4.542;2022-12-08T03:45:24;5.2;;;0.6;;
76548;SDS011;65391;52.068;4.542;2022-12-08T03:47:49;5.5;;;0.3;;
76548;SDS011;65391;52.068;4.542;2022-12-08T03:50:14;5.5;;;0.3;;
76548;SDS011;65391;52.068;4.542;2022-12-08T03:52:39;5.5;;;0.3;;
76548;SDS011;65391;52.068;4.542;2022-12-08T03:55:04;5.5;;;0.3;;
76548;SDS011;65391;52.068;4.542;2022-12-08T03:57:29;0.9;;;0.1;;
76548;SDS011;65391;52.068;4.542;2022-12-08T03:59:54;0.9;;;0.1;;
76548;SDS011;65391;52.068;4.542;2022-12-08T04:02:19;0.9;;;0.1;;
76548;SDS011;65391;52.068;4.542;2022-12-08T04:04:44;0.9;;;0.1;;
76548;SDS011;65391;52.068;4.542;2022-12-08T04:07:09;4.4;;;0.7;;
76548;SDS011;65391;52.068;4.542;2022-12-08T04:09:34;4.4;;;0.7;;
76548;SDS011;65391;52.068;4.542;2022-12-08T04:11:59;4.4;;;0.7;;
76548;SDS011;65391;52.068;4.542;2022-12-08T04:14:24;4.4;;;0.7;;
76548;SDS011;65391;52.068;4.542;2022-12-08T04:16:49;4.3;;;0.3;;
76548;SDS011;65391;52.068;4.542;2022-12-08T04:19:14;4.3;;;0.3;;
76548;SDS011;65391;52.068;4.542;2022-12-08T04:21:39;4.3;;;0.3;;
76548;SDS011;65391;52.068;4.542;2022-12-08T04:24:04;4.3;;;0.3;;
76548;SDS011;65391;52.068;4.542;2022-12-08T04:26:29;5.1;;;0.3;;
76548;SDS011;65391;52.068;4.542;2022-12-08T04:28:54;5.1;;;0.3;;
76548;SDS011;65391;52.068;4.542;2022-12-08T04:31:19;5.1;;;0.3;;
76548;SDS011;65391;52.068;4.542;2022-12-08T04:33:44;5.1;;;0.3;;
76548;SDS011;65391;52.068;4.542;2022-12-08T04:36:09;5.1;;;0.3;;
76548;SDS011;65391;52.068;4.542;2022-12-08T04:38:34;6.7;;;0.6;;
76548;SDS011;65391;52.068;4.542;2022-12-08T04:40:59;6.7;;;0.6;;
76548;SDS011;65391;52.068;4.542;2022-12-08T04:43:24;6.7;;;0.6;;
76548;SDS011;65391;52.068;4.542;2022-12-08T04:45:49;6.7;;;0.6;;
76548;SDS011;65391;52.068;4.542;2022-12-08T04:48:14;0.3;;;0;;
76548;SDS011;65391;52.068;4.542;2022-12-08T04:50:39;0.3;;;0;;
76548;SDS011;65391;52.068;4.542;2022-12-08T04:53:04;0.3;;;0;;
76548;SDS011;65391;52.068;4.542;2022-12-08T04:55:29;0.3;;;0;;
76548;SDS011;65391;52.068;4.542;2022-12-08T04:57:54;1.2;;;0.1;;
76548;SDS011;65391;52.068;4.542;2022-12-08T05:00:19;1.2;;;0.1;;
76548;SDS011;65391;52.068;4.542;2022-12-08T05:02:44;1.2;;;0.1;;
76548;SDS011;65391;52.068;4.542;2022-12-08T05:05:09;1.2;;;0.1;;
76548;SDS011;65391;52.068;4.542;2022-12-08T05:07:34;1.3;;;0.2;;
76548;SDS011;65391;52.068;4.542;2022-12-08T05:09:59;1.3;;;0.2;;
76548;SDS011;65391;52.068;4.542;2022-12-08T05:12:24;1.3;;;0.2;;
76548;SDS011;65391;52.068;4.542;2022-12-08T05:14:49;1.3;;;0.2;;
76548;SDS011;65391;52.068;4.542;2022-12-08T05:17:14;1.6;;;0.2;;
76548;SDS011;65391;52.068;4.542;2022-12-08T05:19:39;1.6;;;0.2;;
76548;SDS011;65391;52.068;4.542;2022-12-08T05:22:04;1.6;;;0.2;;
76548;SDS011;65391;52.068;4.542;2022-12-08T05:24:29;1.6;;;0.2;;
76548;SDS011;65391;52.068;4.542;2022-12-08T05:26:54;3.9;;;0.7;;
76548;SDS011;65391;52.068;4.542;2022-12-08T05:29:19;3.9;;;0.7;;
76548;SDS011;65391;52.068;4.542;2022-12-08T05:31:44;3.9;;;0.7;;
76548;SDS011;65391;52.068;4.542;2022-12-08T05:34:09;3.9;;;0.7;;
76548;SDS011;65391;52.068;4.542;2022-12-08T05:36:34;2.2;;;0.1;;
76548;SDS011;65391;52.068;4.542;2022-12-08T05:38:59;2.2;;;0.1;;
76548;SDS011;65391;52.068;4.542;2022-12-08T05:41:24;2.2;;;0.1;;
76548;SDS011;65391;52.068;4.542;2022-12-08T05:43:49;2.2;;;0.1;;
76548;SDS011;65391;52.068;4.542;2022-12-08T05:46:14;2.2;;;0.1;;
76548;SDS011;65391;52.068;4.542;2022-12-08T05:48:39;4.3;;;0.3;;
76548;SDS011;65391;52.068;4.542;2022-12-08T05:51:06;4.3;;;0.3;;
76548;SDS011;65391;52.068;4.542;2022-12-08T05:53:29;4.3;;;0.3;;
76548;SDS011;65391;52.068;4.542;2022-12-08T05:55:54;4.3;;;0.3;;
76548;SDS011;65391;52.068;4.542;2022-12-08T05:58:20;0.9;;;0.4;;
76548;SDS011;65391;52.068;4.542;2022-12-08T06:00:44;0.9;;;0.4;;
76548;SDS011;65391;52.068;4.542;2022-12-08T06:03:09;0.9;;;0.4;;
76548;SDS011;65391;52.068;4.542;2022-12-08T06:05:34;0.9;;;0.4;;
76548;SDS011;65391;52.068;4.542;2022-12-08T06:07:59;1.6;;;0.1;;
76548;SDS011;65391;52.068;4.542;2022-12-08T06:10:24;1.6;;;0.1;;
76548;SDS011;65391;52.068;4.542;2022-12-08T06:12:49;1.6;;;0.1;;
76548;SDS011;65391;52.068;4.542;2022-12-08T06:15:14;1.6;;;0.1;;
76548;SDS011;65391;52.068;4.542;2022-12-08T06:17:39;0.7;;;0.1;;
76548;SDS011;65391;52.068;4.542;2022-12-08T06:20:05;0.7;;;0.1;;
76548;SDS011;65391;52.068;4.542;2022-12-08T06:22:29;0.7;;;0.1;;
76548;SDS011;65391;52.068;4.542;2022-12-08T06:24:54;0.7;;;0.1;;
76548;SDS011;65391;52.068;4.542;2022-12-08T06:27:19;0.5;;;0.1;;
76548;SDS011;65391;52.068;4.542;2022-12-08T06:29:44;0.5;;;0.1;;
76548;SDS011;65391;52.068;4.542;2022-12-08T06:32:10;0.5;;;0.1;;
76548;SDS011;65391;52.068;4.542;2022-12-08T06:34:34;0.5;;;0.1;;
76548;SDS011;65391;52.068;4.542;2022-12-08T06:36:59;1.3;;;0.2;;
76548;SDS011;65391;52.068;4.542;2022-12-08T06:39:24;1.3;;;0.2;;
76548;SDS011;65391;52.068;4.542;2022-12-08T06:41:49;1.3;;;0.2;;
76548;SDS011;65391;52.068;4.542;2022-12-08T06:44:14;1.3;;;0.2;;
76548;SDS011;65391;52.068;4.542;2022-12-08T06:46:39;0.4;;;0.2;;
76548;SDS011;65391;52.068;4.542;2022-12-08T06:49:04;0.4;;;0.2;;
76548;SDS011;65391;52.068;4.542;2022-12-08T06:51:29;0.4;;;0.2;;
76548;SDS011;65391;52.068;4.542;2022-12-08T06:53:54;0.4;;;0.2;;
76548;SDS011;65391;52.068;4.542;2022-12-08T06:56:19;0.4;;;0.2;;
76548;SDS011;65391;52.068;4.542;2022-12-08T06:58:44;1.4;;;0.2;;
76548;SDS011;65391;52.068;4.542;2022-12-08T07:01:10;1.4;;;0.2;;
76548;SDS011;65391;52.068;4.542;2022-12-08T07:03:35;1.4;;;0.2;;
76548;SDS011;65391;52.068;4.542;2022-12-08T07:05:59;1.4;;;0.2;;
76548;SDS011;65391;52.068;4.542;2022-12-08T07:08:24;2.5;;;0.2;;
76548;SDS011;65391;52.068;4.542;2022-12-08T07:10:49;2.5;;;0.2;;
76548;SDS011;65391;52.068;4.542;2022-12-08T07:13:14;2.5;;;0.2;;
76548;SDS011;65391;52.068;4.542;2022-12-08T07:15:39;2.5;;;0.2;;
76548;SDS011;65391;52.068;4.542;2022-12-08T07:18:04;1.4;;;0.3;;
76548;SDS011;65391;52.068;4.542;2022-12-08T07:20:29;1.4;;;0.3;;
76548;SDS011;65391;52.068;4.542;2022-12-08T07:22:54;1.4;;;0.3;;
76548;SDS011;65391;52.068;4.542;2022-12-08T07:25:19;1.4;;;0.3;;
76548;SDS011;65391;52.068;4.542;2022-12-08T07:27:45;5.8;;;0.4;;
76548;SDS011;65391;52.068;4.542;2022-12-08T07:30:10;5.8;;;0.4;;
76548;SDS011;65391;52.068;4.542;2022-12-08T07:32:35;5.8;;;0.4;;
76548;SDS011;65391;52.068;4.542;2022-12-08T07:34:59;5.8;;;0.4;;
76548;SDS011;65391;52.068;4.542;2022-12-08T07:37:24;3.9;;;0.6;;
76548;SDS011;65391;52.068;4.542;2022-12-08T07:39:49;3.9;;;0.6;;
76548;SDS011;65391;52.068;4.542;2022-12-08T07:42:14;3.9;;;0.6;;
76548;SDS011;65391;52.068;4.542;2022-12-08T07:44:39;3.9;;;0.6;;
76548;SDS011;65391;52.068;4.542;2022-12-08T07:47:04;2.5;;;0.5;;
76548;SDS011;65391;52.068;4.542;2022-12-08T07:49:29;2.5;;;0.5;;
76548;SDS011;65391;52.068;4.542;2022-12-08T07:51:54;2.5;;;0.5;;
76548;SDS011;65391;52.068;4.542;2022-12-08T07:54:20;2.5;;;0.5;;
76548;SDS011;65391;52.068;4.542;2022-12-08T07:56:44;2.5;;;0.6;;
76548;SDS011;65391;52.068;4.542;2022-12-08T07:59:09;2.5;;;0.6;;
76548;SDS011;65391;52.068;4.542;2022-12-08T08:01:34;2.5;;;0.6;;
76548;SDS011;65391;52.068;4.542;2022-12-08T08:04:01;2.5;;;0.6;;
76548;SDS011;65391;52.068;4.542;2022-12-08T08:06:24;2.5;;;0.6;;
76548;SDS011;65391;52.068;4.542;2022-12-08T08:08:49;2.4;;;0.6;;
76548;SDS011;65391;52.068;4.542;2022-12-08T08:11:14;2.4;;;0.6;;
76548;SDS011;65391;52.068;4.542;2022-12-08T08:13:39;2.4;;;0.6;;
76548;SDS011;65391;52.068;4.542;2022-12-08T08:16:05;2.4;;;0.6;;
76548;SDS011;65391;52.068;4.542;2022-12-08T08:18:29;1.3;;;0.6;;
76548;SDS011;65391;52.068;4.542;2022-12-08T08:20:54;1.3;;;0.6;;
76548;SDS011;65391;52.068;4.542;2022-12-08T08:23:19;1.3;;;0.6;;
76548;SDS011;65391;52.068;4.542;2022-12-08T08:25:44;1.3;;;0.6;;
76548;SDS011;65391;52.068;4.542;2022-12-08T08:28:09;3.1;;;0.3;;
76548;SDS011;65391;52.068;4.542;2022-12-08T08:30:34;3.1;;;0.3;;
76548;SDS011;65391;52.068;4.542;2022-12-08T08:32:59;3.1;;;0.3;;
76548;SDS011;65391;52.068;4.542;2022-12-08T08:35:24;3.1;;;0.3;;
76548;SDS011;65391;52.068;4.542;2022-12-08T08:37:49;0.6;;;0.3;;
76548;SDS011;65391;52.068;4.542;2022-12-08T08:40:15;0.6;;;0.3;;
76548;SDS011;65391;52.068;4.542;2022-12-08T08:42:39;0.6;;;0.3;;
76548;SDS011;65391;52.068;4.542;2022-12-08T08:45:05;0.6;;;0.3;;
76548;SDS011;65391;52.068;4.542;2022-12-08T08:47:29;1.2;;;0.3;;
76548;SDS011;65391;52.068;4.542;2022-12-08T08:49:55;1.2;;;0.3;;
76548;SDS011;65391;52.068;4.542;2022-12-08T08:52:19;1.2;;;0.3;;
76548;SDS011;65391;52.068;4.542;2022-12-08T08:54:44;1.2;;;0.3;;
76548;SDS011;65391;52.068;4.542;2022-12-08T08:57:10;3.1;;;0.2;;
76548;SDS011;65391;52.068;4.542;2022-12-08T08:59:34;3.1;;;0.2;;
76548;SDS011;65391;52.068;4.542;2022-12-08T09:01:59;3.1;;;0.2;;
76548;SDS011;65391;52.068;4.542;2022-12-08T09:04:24;3.1;;;0.2;;
76548;SDS011;65391;52.068;4.542;2022-12-08T09:06:50;2;;;0.2;;
76548;SDS011;65391;52.068;4.542;2022-12-08T09:09:14;2;;;0.2;;
76548;SDS011;65391;52.068;4.542;2022-12-08T09:11:39;2;;;0.2;;
76548;SDS011;65391;52.068;4.542;2022-12-08T09:14:05;2;;;0.2;;
76548;SDS011;65391;52.068;4.542;2022-12-08T09:16:29;2;;;0.2;;
76548;SDS011;65391;52.068;4.542;2022-12-08T09:18:55;1.5;;;0.3;;
76548;SDS011;65391;52.068;4.542;2022-12-08T09:21:21;1.5;;;0.3;;
76548;SDS011;65391;52.068;4.542;2022-12-08T09:23:44;1.5;;;0.3;;
76548;SDS011;65391;52.068;4.542;2022-12-08T09:26:10;1.5;;;0.3;;
76548;SDS011;65391;52.068;4.542;2022-12-08T09:28:35;4.7;;;0.5;;
76548;SDS011;65391;52.068;4.542;2022-12-08T09:31:00;4.7;;;0.5;;
76548;SDS011;65391;52.068;4.542;2022-12-08T09:33:25;4.7;;;0.5;;
76548;SDS011;65391;52.068;4.542;2022-12-08T09:35:50;4.7;;;0.5;;
76548;SDS011;65391;52.068;4.542;2022-12-08T09:38:15;3.1;;;0.6;;
76548;SDS011;65391;52.068;4.542;2022-12-08T09:40:41;3.1;;;0.6;;
76548;SDS011;65391;52.068;4.542;2022-12-08T09:43:07;3.1;;;0.6;;
76548;SDS011;65391;52.068;4.542;2022-12-08T09:45:32;3.1;;;0.6;;
76548;SDS011;65391;52.068;4.542;2022-12-08T09:47:58;1.2;;;0.6;;
76548;SDS011;65391;52.068;4.542;2022-12-08T09:50:25;1.2;;;0.6;;
76548;SDS011;65391;52.068;4.542;2022-12-08T09:52:46;1.2;;;0.6;;
76548;SDS011;65391;52.068;4.542;2022-12-08T09:55:14;1.2;;;0.6;;
76548;SDS011;65391;52.068;4.542;2022-12-08T09:57:35;3.8;;;0.8;;
76548;SDS011;65391;52.068;4.542;2022-12-08T10:00:03;3.8;;;0.8;;
76548;SDS011;65391;52.068;4.542;2022-12-08T10:02:26;3.8;;;0.8;;
76548;SDS011;65391;52.068;4.542;2022-12-08T10:04:50;3.8;;;0.8;;
76548;SDS011;65391;52.068;4.542;2022-12-08T10:07:16;4.6;;;0.9;;
76548;SDS011;65391;52.068;4.542;2022-12-08T10:09:41;4.6;;;0.9;;
76548;SDS011;65391;52.068;4.542;2022-12-08T10:12:09;4.6;;;0.9;;
76548;SDS011;65391;52.068;4.542;2022-12-08T10:14:31;4.6;;;0.9;;
76548;SDS011;65391;52.068;4.542;2022-12-08T10:16:57;1.3;;;0.5;;
76548;SDS011;65391;52.068;4.542;2022-12-08T10:19:21;1.3;;;0.5;;
76548;SDS011;65391;52.068;4.542;2022-12-08T10:21:45;1.3;;;0.5;;
76548;SDS011;65391;52.068;4.542;2022-12-08T10:24:12;1.3;;;0.5;;
76548;SDS011;65391;52.068;4.542;2022-12-08T10:26:35;1.3;;;0.5;;
76548;SDS011;65391;52.068;4.542;2022-12-08T10:29:00;2.9;;;0.4;;
76548;SDS011;65391;52.068;4.542;2022-12-08T10:31:25;2.9;;;0.4;;
76548;SDS011;65391;52.068;4.542;2022-12-08T10:33:52;2.9;;;0.4;;
76548;SDS011;65391;52.068;4.542;2022-12-08T10:36:15;2.9;;;0.4;;
76548;SDS011;65391;52.068;4.542;2022-12-08T10:38:40;2.3;;;0.6;;
76548;SDS011;65391;52.068;4.542;2022-12-08T10:41:06;2.3;;;0.6;;
76548;SDS011;65391;52.068;4.542;2022-12-08T10:43:30;2.3;;;0.6;;
76548;SDS011;65391;52.068;4.542;2022-12-08T10:45:55;2.3;;;0.6;;
76548;SDS011;65391;52.068;4.542;2022-12-08T10:48:21;2;;;0.4;;
76548;SDS011;65391;52.068;4.542;2022-12-08T10:50:46;2;;;0.4;;
76548;SDS011;65391;52.068;4.542;2022-12-08T10:53:12;2;;;0.4;;
76548;SDS011;65391;52.068;4.542;2022-12-08T10:55:39;2;;;0.4;;
76548;SDS011;65391;52.068;4.542;2022-12-08T10:58:00;3;;;0.3;;
76548;SDS011;65391;52.068;4.542;2022-12-08T11:00:26;3;;;0.3;;
76548;SDS011;65391;52.068;4.542;2022-12-08T11:02:52;3;;;0.3;;
76548;SDS011;65391;52.068;4.542;2022-12-08T11:05:21;3;;;0.3;;
76548;SDS011;65391;52.068;4.542;2022-12-08T11:07:45;6.1;;;0.6;;
76548;SDS011;65391;52.068;4.542;2022-12-08T11:10:14;6.1;;;0.6;;
76548;SDS011;65391;52.068;4.542;2022-12-08T11:12:30;6.1;;;0.6;;
76548;SDS011;65391;52.068;4.542;2022-12-08T11:14:56;6.1;;;0.6;;
76548;SDS011;65391;52.068;4.542;2022-12-08T11:17:24;3.4;;;0.8;;
76548;SDS011;65391;52.068;4.542;2022-12-08T11:19:54;3.4;;;0.8;;
76548;SDS011;65391;52.068;4.542;2022-12-08T11:22:20;3.4;;;0.8;;
76548;SDS011;65391;52.068;4.542;2022-12-08T11:24:35;3.4;;;0.8;;
76548;SDS011;65391;52.068;4.542;2022-12-08T11:27:01;1.4;;;0.7;;
76548;SDS011;65391;52.068;4.542;2022-12-08T11:29:25;1.4;;;0.7;;
76548;SDS011;65391;52.068;4.542;2022-12-08T11:31:51;1.4;;;0.7;;
76548;SDS011;65391;52.068;4.542;2022-12-08T11:34:18;1.4;;;0.7;;
76548;SDS011;65391;52.068;4.542;2022-12-08T11:36:40;1.4;;;0.7;;
76548;SDS011;65391;52.068;4.542;2022-12-08T11:39:05;3.1;;;0.4;;
76548;SDS011;65391;52.068;4.542;2022-12-08T11:41:32;3.1;;;0.4;;
76548;SDS011;65391;52.068;4.542;2022-12-08T11:43:57;3.1;;;0.4;;
76548;SDS011;65391;52.068;4.542;2022-12-08T11:46:22;3.1;;;0.4;;
76548;SDS011;65391;52.068;4.542;2022-12-08T11:48:47;5.6;;;0.8;;
76548;SDS011;65391;52.068;4.542;2022-12-08T11:51:11;5.6;;;0.8;;
76548;SDS011;65391;52.068;4.542;2022-12-08T11:53:37;5.6;;;0.8;;
76548;SDS011;65391;52.068;4.542;2022-12-08T11:56:04;5.6;;;0.8;;
76548;SDS011;65391;52.068;4.542;2022-12-08T11:58:26;1.7;;;0.4;;
76548;SDS011;65391;52.068;4.542;2022-12-08T12:00:50;1.7;;;0.4;;
76548;SDS011;65391;52.068;4.542;2022-12-08T12:03:19;1.7;;;0.4;;
76548;SDS011;65391;52.068;4.542;2022-12-08T12:05:42;1.7;;;0.4;;
76548;SDS011;65391;52.068;4.542;2022-12-08T12:08:09;3;;;0.2;;
76548;SDS011;65391;52.068;4.542;2022-12-08T12:10:38;3;;;0.2;;
76548;SDS011;65391;52.068;4.542;2022-12-08T12:13:02;3;;;0.2;;
76548;SDS011;65391;52.068;4.542;2022-12-08T12:15:30;3;;;0.2;;
76548;SDS011;65391;52.068;4.542;2022-12-08T12:17:46;3.3;;;0.3;;
76548;SDS011;65391;52.068;4.542;2022-12-08T12:20:12;3.3;;;0.3;;
76548;SDS011;65391;52.068;4.542;2022-12-08T12:22:35;3.3;;;0.3;;
76548;SDS011;65391;52.068;4.542;2022-12-08T12:25:00;3.3;;;0.3;;
76548;SDS011;65391;52.068;4.542;2022-12-08T12:27:26;2.5;;;0.4;;
76548;SDS011;65391;52.068;4.542;2022-12-08T12:29:52;2.5;;;0.4;;
76548;SDS011;65391;52.068;4.542;2022-12-08T12:32:15;2.5;;;0.4;;
76548;SDS011;65391;52.068;4.542;2022-12-08T12:34:45;2.5;;;0.4;;
76548;SDS011;65391;52.068;4.542;2022-12-08T12:37:07;2.5;;;0.3;;
76548;SDS011;65391;52.068;4.542;2022-12-08T12:39:32;2.5;;;0.3;;
76548;SDS011;65391;52.068;4.542;2022-12-08T12:41:56;2.5;;;0.3;;
76548;SDS011;65391;52.068;4.542;2022-12-08T12:44:39;2.5;;;0.3;;
76548;SDS011;65391;52.068;4.542;2022-12-08T12:46:53;2.5;;;0.3;;
76548;SDS011;65391;52.068;4.542;2022-12-08T12:50:23;3.4;;;1.5;;
76548;SDS011;65391;52.068;4.542;2022-12-08T12:51:43;3.4;;;1.5;;
76548;SDS011;65391;52.068;4.542;2022-12-08T12:54:19;3.4;;;1.5;;
76548;SDS011;65391;52.068;4.542;2022-12-08T12:57:14;3.4;;;1.5;;
76548;SDS011;65391;52.068;4.542;2022-12-08T12:58:50;3.7;;;1.1;;
76548;SDS011;65391;52.068;4.542;2022-12-08T13:01:49;3.7;;;1.1;;
76548;SDS011;65391;52.068;4.542;2022-12-08T13:03:41;3.7;;;1.1;;
76548;SDS011;65391;52.068;4.542;2022-12-08T13:06:05;3.7;;;1.1;;
76548;SDS011;65391;52.068;4.542;2022-12-08T13:08:30;2.8;;;0.9;;
76548;SDS011;65391;52.068;4.542;2022-12-08T13:10:57;2.8;;;0.9;;
76548;SDS011;65391;52.068;4.542;2022-12-08T13:13:20;2.8;;;0.9;;
76548;SDS011;65391;52.068;4.542;2022-12-08T13:15:47;2.8;;;0.9;;
76548;SDS011;65391;52.068;4.542;2022-12-08T13:18:16;7.4;;;1.7;;
76548;SDS011;65391;52.068;4.542;2022-12-08T13:20:40;7.4;;;1.7;;
76548;SDS011;65391;52.068;4.542;2022-12-08T13:23:02;7.4;;;1.7;;
76548;SDS011;65391;52.068;4.542;2022-12-08T13:26:29;7.4;;;1.7;;
76548;SDS011;65391;52.068;4.542;2022-12-08T13:27:51;3.4;;;0.8;;
76548;SDS011;65391;52.068;4.542;2022-12-08T13:30:40;3.4;;;0.8;;
76548;SDS011;65391;52.068;4.542;2022-12-08T13:32:56;3.4;;;0.8;;
76548;SDS011;65391;52.068;4.542;2022-12-08T13:35:05;3.4;;;0.8;;
76548;SDS011;65391;52.068;4.542;2022-12-08T13:37:31;3.1;;;1.1;;
76548;SDS011;65391;52.068;4.542;2022-12-08T13:39:56;3.1;;;1.1;;
76548;SDS011;65391;52.068;4.542;2022-12-08T13:42:22;3.1;;;1.1;;
76548;SDS011;65391;52.068;4.542;2022-12-08T13:44:46;3.1;;;1.1;;
76548;SDS011;65391;52.068;4.542;2022-12-08T13:47:11;8.3;;;1.8;;
76548;SDS011;65391;52.068;4.542;2022-12-08T13:49:36;8.3;;;1.8;;
76548;SDS011;65391;52.068;4.542;2022-12-08T13:52:00;8.3;;;1.8;;
76548;SDS011;65391;52.068;4.542;2022-12-08T13:54:26;8.3;;;1.8;;
76548;SDS011;65391;52.068;4.542;2022-12-08T13:56:50;8.3;;;1.8;;
76548;SDS011;65391;52.068;4.542;2022-12-08T13:59:24;6.8;;;1.6;;
76548;SDS011;65391;52.068;4.542;2022-12-08T14:01:42;6.8;;;1.6;;
76548;SDS011;65391;52.068;4.542;2022-12-08T14:04:11;6.8;;;1.6;;
76548;SDS011;65391;52.068;4.542;2022-12-08T14:06:34;6.8;;;1.6;;
76548;SDS011;65391;52.068;4.542;2022-12-08T14:08:58;7.4;;;1.8;;
76548;SDS011;65391;52.068;4.542;2022-12-08T14:11:24;7.4;;;1.8;;
76548;SDS011;65391;52.068;4.542;2022-12-08T14:13:45;7.4;;;1.8;;
76548;SDS011;65391;52.068;4.542;2022-12-08T14:16:14;7.4;;;1.8;;
76548;SDS011;65391;52.068;4.542;2022-12-08T14:18:35;4.4;;;0.7;;
76548;SDS011;65391;52.068;4.542;2022-12-08T14:21:02;4.4;;;0.7;;
76548;SDS011;65391;52.068;4.542;2022-12-08T14:23:25;4.4;;;0.7;;
76548;SDS011;65391;52.068;4.542;2022-12-08T14:25:50;4.4;;;0.7;;
76548;SDS011;65391;52.068;4.542;2022-12-08T14:28:15;3.6;;;0.8;;
76548;SDS011;65391;52.068;4.542;2022-12-08T14:30:40;3.6;;;0.8;;
76548;SDS011;65391;52.068;4.542;2022-12-08T14:33:08;3.6;;;0.8;;
76548;SDS011;65391;52.068;4.542;2022-12-08T14:35:31;3.6;;;0.8;;
76548;SDS011;65391;52.068;4.542;2022-12-08T14:37:57;4.6;;;1;;
76548;SDS011;65391;52.068;4.542;2022-12-08T14:40:22;4.6;;;1;;
76548;SDS011;65391;52.068;4.542;2022-12-08T14:42:46;4.6;;;1;;
76548;SDS011;65391;52.068;4.542;2022-12-08T14:45:11;4.6;;;1;;
76548;SDS011;65391;52.068;4.542;2022-12-08T14:47:35;2.7;;;1.3;;
76548;SDS011;65391;52.068;4.542;2022-12-08T14:50:01;2.7;;;1.3;;
76548;SDS011;65391;52.068;4.542;2022-12-08T14:52:25;2.7;;;1.3;;
76548;SDS011;65391;52.068;4.542;2022-12-08T14:54:50;2.7;;;1.3;;
76548;SDS011;65391;52.068;4.542;2022-12-08T14:57:15;3.3;;;1.1;;
76548;SDS011;65391;52.068;4.542;2022-12-08T14:59:41;3.3;;;1.1;;
76548;SDS011;65391;52.068;4.542;2022-12-08T15:02:11;3.3;;;1.1;;
76548;SDS011;65391;52.068;4.542;2022-12-08T15:04:30;3.3;;;1.1;;